UAF3024 EEEI-ESPA
Flight info
| Callsign | UAF3024 |
|---|---|
| Flight time | 0h 54m |
| Altitude | 28000 |
| Route | OLPED DCT KELAS/N0468F410 DCT BODRI DCT SOPLI/N0468F270 M607 GOSDI |
| Aircraft | F16/M-DILRTUV/C |
Departure
| Time | 2026-05-05 18:08 |
|---|---|
| Airport | Ämari Air Base (EEEI) |
Arrival
| Time | 2026-05-05 19:03 |
|---|---|
| Airport | Luleå Airport (ESPA) |
| Time | Latitude | Longitude | Altitude | Speed | Heading |
|---|---|---|---|---|---|
| 2026-05-05 17:48 | 59.25550 | 24.19781 | 68 ft | 0 kts | 336° |
| 2026-05-05 18:00 | 59.25556 | 24.19776 | 68 ft | 4 kts | 336° |
| 2026-05-05 18:00 | 59.25585 | 24.19840 | 66 ft | 10 kts | 67° |
| 2026-05-05 18:00 | 59.25619 | 24.19993 | 66 ft | 13 kts | 66° |
| 2026-05-05 18:00 | 59.25661 | 24.20185 | 68 ft | 19 kts | 67° |
| 2026-05-05 18:01 | 59.25713 | 24.20425 | 65 ft | 20 kts | 65° |
| 2026-05-05 18:01 | 59.25774 | 24.20683 | 68 ft | 21 kts | 66° |
| 2026-05-05 18:01 | 59.25834 | 24.20945 | 65 ft | 21 kts | 66° |
| 2026-05-05 18:01 | 59.25893 | 24.21199 | 66 ft | 20 kts | 66° |
| 2026-05-05 18:02 | 59.25950 | 24.21449 | 65 ft | 21 kts | 66° |
| 2026-05-05 18:02 | 59.26009 | 24.21709 | 68 ft | 21 kts | 65° |
| 2026-05-05 18:02 | 59.26073 | 24.21978 | 65 ft | 22 kts | 66° |
| 2026-05-05 18:02 | 59.26130 | 24.22265 | 65 ft | 23 kts | 71° |
| 2026-05-05 18:03 | 59.26184 | 24.22522 | 68 ft | 16 kts | 45° |
| 2026-05-05 18:03 | 59.26283 | 24.22532 | 64 ft | 16 kts | 339° |
| 2026-05-05 18:03 | 59.26322 | 24.22466 | 67 ft | 3 kts | 250° |
| 2026-05-05 18:03 | 59.26321 | 24.22463 | 67 ft | 0 kts | 250° |
| 2026-05-05 18:08 | 59.26196 | 24.21768 | 64 ft | 138 kts | 251° |
| 2026-05-05 18:08 | 59.25711 | 24.19020 | 518 ft | 282 kts | 252° |
| 2026-05-05 18:08 | 59.25546 | 24.15130 | 1432 ft | 296 kts | 288° |
| 2026-05-05 18:09 | 59.26622 | 24.11585 | 2013 ft | 313 kts | 304° |
| 2026-05-05 18:09 | 59.27866 | 24.08071 | 2956 ft | 312 kts | 304° |
| 2026-05-05 18:09 | 59.29036 | 24.04551 | 4081 ft | 304 kts | 299° |
| 2026-05-05 18:09 | 59.29982 | 24.00914 | 5198 ft | 295 kts | 296° |
| 2026-05-05 18:10 | 59.30877 | 23.97391 | 6337 ft | 282 kts | 296° |
| 2026-05-05 18:10 | 59.31738 | 23.94026 | 7444 ft | 271 kts | 294° |
| 2026-05-05 18:10 | 59.32557 | 23.90815 | 8623 ft | 265 kts | 292° |
| 2026-05-05 18:10 | 59.33385 | 23.87535 | 9951 ft | 281 kts | 290° |
| 2026-05-05 18:11 | 59.34300 | 23.83814 | 10516 ft | 320 kts | 291° |
| 2026-05-05 18:11 | 59.35278 | 23.79766 | 10956 ft | 335 kts | 290° |
| 2026-05-05 18:11 | 59.36278 | 23.75579 | 11583 ft | 343 kts | 290° |
| 2026-05-05 18:11 | 59.37296 | 23.71278 | 12286 ft | 351 kts | 289° |
| 2026-05-05 18:12 | 59.38321 | 23.66891 | 13070 ft | 357 kts | 289° |
| 2026-05-05 18:12 | 59.39343 | 23.62492 | 13887 ft | 361 kts | 288° |
| 2026-05-05 18:12 | 59.40377 | 23.58040 | 14694 ft | 355 kts | 288° |
| 2026-05-05 18:12 | 59.41390 | 23.53711 | 15521 ft | 343 kts | 288° |
| 2026-05-05 18:13 | 59.42390 | 23.49455 | 15962 ft | 344 kts | 288° |
| 2026-05-05 18:13 | 59.43388 | 23.45207 | 16391 ft | 341 kts | 288° |
| 2026-05-05 18:13 | 59.44379 | 23.41004 | 16896 ft | 337 kts | 288° |
| 2026-05-05 18:13 | 59.45359 | 23.36861 | 17416 ft | 332 kts | 288° |
| 2026-05-05 18:14 | 59.46327 | 23.32795 | 17965 ft | 325 kts | 288° |
| 2026-05-05 18:14 | 59.47278 | 23.28825 | 18514 ft | 316 kts | 287° |
| 2026-05-05 18:14 | 59.48209 | 23.24981 | 19006 ft | 306 kts | 287° |
| 2026-05-05 18:14 | 59.49119 | 23.21259 | 19496 ft | 303 kts | 287° |
| 2026-05-05 18:15 | 59.49985 | 23.17464 | 19849 ft | 320 kts | 281° |
| 2026-05-05 18:15 | 59.50450 | 23.12915 | 20016 ft | 364 kts | 269° |
| 2026-05-05 18:15 | 59.50695 | 23.07615 | 19861 ft | 402 kts | 275° |
| 2026-05-05 18:15 | 59.51120 | 23.02073 | 19840 ft | 417 kts | 274° |
| 2026-05-05 18:16 | 59.51520 | 22.96309 | 19846 ft | 432 kts | 274° |
| 2026-05-05 18:16 | 59.51924 | 22.90350 | 19846 ft | 437 kts | 274° |
| 2026-05-05 18:16 | 59.52305 | 22.84770 | 19837 ft | 378 kts | 273° |
| 2026-05-05 18:16 | 59.52642 | 22.80080 | 19857 ft | 316 kts | 273° |
| 2026-05-05 18:17 | 59.52956 | 22.76016 | 19823 ft | 289 kts | 273° |
| 2026-05-05 18:17 | 59.53248 | 22.72198 | 19822 ft | 275 kts | 272° |
| 2026-05-05 18:17 | 59.53515 | 22.68615 | 19827 ft | 262 kts | 272° |
| 2026-05-05 18:17 | 59.53771 | 22.65122 | 19882 ft | 253 kts | 272° |
| 2026-05-05 18:18 | 59.54020 | 22.61746 | 19866 ft | 245 kts | 272° |
| 2026-05-05 18:18 | 59.54267 | 22.58484 | 19996 ft | 237 kts | 272° |
| 2026-05-05 18:18 | 59.54521 | 22.55247 | 20387 ft | 240 kts | 273° |
| 2026-05-05 18:18 | 59.54775 | 22.52146 | 21484 ft | 217 kts | 272° |
| 2026-05-05 18:19 | 59.55023 | 22.49382 | 23718 ft | 187 kts | 272° |
| 2026-05-05 18:19 | 59.55070 | 22.46586 | 24090 ft | 240 kts | 263° |
| 2026-05-05 18:19 | 59.55022 | 22.42786 | 23946 ft | 318 kts | 268° |
| 2026-05-05 18:19 | 59.55125 | 22.37859 | 24022 ft | 403 kts | 269° |
| 2026-05-05 18:20 | 59.55251 | 22.31667 | 24230 ft | 505 kts | 270° |
| 2026-05-05 18:20 | 59.55486 | 22.24273 | 24586 ft | 573 kts | 271° |
| 2026-05-05 18:20 | 59.55808 | 22.16204 | 26183 ft | 581 kts | 271° |
| 2026-05-05 18:20 | 59.56038 | 22.09581 | 27877 ft | 425 kts | 282° |
| 2026-05-05 18:21 | 59.56225 | 22.04342 | 27789 ft | 376 kts | 268° |
| 2026-05-05 18:21 | 59.56256 | 22.02305 | 27796 ft | 406 kts | 268° |
| 2026-05-05 18:21 | 59.56299 | 21.99071 | 27822 ft | 402 kts | 269° |
| 2026-05-05 18:21 | 59.56441 | 21.93663 | 28167 ft | 387 kts | 272° |
| 2026-05-05 18:22 | 59.56806 | 21.88475 | 28582 ft | 377 kts | 272° |
| 2026-05-05 18:22 | 59.57109 | 21.83185 | 28689 ft | 409 kts | 272° |
| 2026-05-05 18:22 | 59.57367 | 21.79015 | 28402 ft | 402 kts | 276° |
| 2026-05-05 18:22 | 59.57491 | 21.77632 | 28292 ft | 406 kts | 275° |
| 2026-05-05 18:23 | 59.57780 | 21.71789 | 27820 ft | 448 kts | 270° |
| 2026-05-05 18:23 | 59.57975 | 21.65797 | 27331 ft | 409 kts | 270° |
| 2026-05-05 18:23 | 59.58440 | 21.60306 | 27213 ft | 421 kts | 281° |
| 2026-05-05 18:23 | 59.59447 | 21.54844 | 27748 ft | 426 kts | 288° |
| 2026-05-05 18:24 | 59.60851 | 21.49850 | 27742 ft | 405 kts | 298° |
| 2026-05-05 18:24 | 59.62650 | 21.45139 | 27846 ft | 431 kts | 298° |
| 2026-05-05 18:24 | 59.64446 | 21.40494 | 27841 ft | 428 kts | 300° |
| 2026-05-05 18:24 | 59.66264 | 21.35844 | 27916 ft | 427 kts | 299° |
| 2026-05-05 18:25 | 59.68048 | 21.31256 | 27816 ft | 424 kts | 299° |
| 2026-05-05 18:25 | 59.69267 | 21.28119 | 27834 ft | 427 kts | 299° |
| 2026-05-05 18:25 | 59.71559 | 21.21812 | 27954 ft | 422 kts | 297° |
| 2026-05-05 18:25 | 59.73329 | 21.17058 | 27879 ft | 438 kts | 300° |
| 2026-05-05 18:26 | 59.75198 | 21.12313 | 27893 ft | 431 kts | 298° |
| 2026-05-05 18:26 | 59.77010 | 21.07570 | 27877 ft | 431 kts | 299° |
| 2026-05-05 18:26 | 59.78823 | 21.02834 | 27868 ft | 430 kts | 298° |
| 2026-05-05 18:26 | 59.80621 | 20.98110 | 27879 ft | 429 kts | 299° |
| 2026-05-05 18:27 | 59.82407 | 20.93359 | 27899 ft | 429 kts | 298° |
| 2026-05-05 18:27 | 59.84205 | 20.88600 | 27892 ft | 432 kts | 298° |
| 2026-05-05 18:27 | 59.85993 | 20.83890 | 27922 ft | 433 kts | 299° |
| 2026-05-05 18:27 | 59.87824 | 20.79188 | 27817 ft | 425 kts | 301° |
| 2026-05-05 18:28 | 59.91432 | 20.69742 | 27819 ft | 429 kts | 298° |
| 2026-05-05 18:28 | 59.93225 | 20.64974 | 27814 ft | 429 kts | 298° |
| 2026-05-05 18:28 | 59.95012 | 20.60213 | 27822 ft | 429 kts | 298° |
| 2026-05-05 18:29 | 59.96790 | 20.55461 | 27810 ft | 426 kts | 298° |
| 2026-05-05 18:29 | 59.98522 | 20.50700 | 27797 ft | 426 kts | 298° |
| 2026-05-05 18:29 | 60.00338 | 20.45933 | 27803 ft | 435 kts | 297° |
| 2026-05-05 18:29 | 60.02090 | 20.41066 | 27867 ft | 428 kts | 298° |
| 2026-05-05 18:30 | 60.03879 | 20.36438 | 27818 ft | 426 kts | 298° |
| 2026-05-05 18:30 | 60.05652 | 20.31657 | 27832 ft | 428 kts | 298° |
| 2026-05-05 18:30 | 60.07424 | 20.26866 | 27817 ft | 424 kts | 298° |
| 2026-05-05 18:30 | 60.09158 | 20.22192 | 27843 ft | 423 kts | 298° |
| 2026-05-05 18:31 | 60.10925 | 20.17377 | 27808 ft | 427 kts | 298° |
| 2026-05-05 18:31 | 60.12676 | 20.12614 | 27827 ft | 425 kts | 298° |
| 2026-05-05 18:31 | 60.14426 | 20.07842 | 27832 ft | 421 kts | 298° |
| 2026-05-05 18:31 | 60.16179 | 20.03051 | 27838 ft | 421 kts | 298° |
| 2026-05-05 18:32 | 60.17925 | 19.98275 | 27839 ft | 424 kts | 298° |
| 2026-05-05 18:32 | 60.19648 | 19.93546 | 27848 ft | 425 kts | 298° |
| 2026-05-05 18:32 | 60.21389 | 19.88765 | 27833 ft | 419 kts | 298° |
| 2026-05-05 18:32 | 60.23076 | 19.83946 | 27866 ft | 432 kts | 297° |
| 2026-05-05 18:33 | 60.24809 | 19.79106 | 27887 ft | 422 kts | 297° |
| 2026-05-05 18:33 | 60.26547 | 19.74292 | 27885 ft | 428 kts | 298° |
| 2026-05-05 18:33 | 60.28284 | 19.69481 | 27895 ft | 423 kts | 298° |
| 2026-05-05 18:33 | 60.30025 | 19.64689 | 27871 ft | 423 kts | 298° |
| 2026-05-05 18:34 | 60.31759 | 19.59868 | 27874 ft | 424 kts | 298° |
| 2026-05-05 18:34 | 60.33475 | 19.55109 | 27869 ft | 416 kts | 298° |
| 2026-05-05 18:34 | 60.35174 | 19.50437 | 27884 ft | 422 kts | 298° |
| 2026-05-05 18:34 | 60.36891 | 19.45514 | 27861 ft | 434 kts | 297° |
| 2026-05-05 18:35 | 60.38626 | 19.40613 | 27859 ft | 424 kts | 298° |
| 2026-05-05 18:35 | 60.40357 | 19.35793 | 27884 ft | 425 kts | 297° |
| 2026-05-05 18:35 | 60.42081 | 19.30958 | 27888 ft | 422 kts | 297° |
| 2026-05-05 18:35 | 60.44010 | 19.26460 | 27903 ft | 436 kts | 313° |
| 2026-05-05 18:36 | 60.46669 | 19.22912 | 27916 ft | 478 kts | 324° |
| 2026-05-05 18:36 | 60.49731 | 19.20439 | 27909 ft | 473 kts | 334° |
| 2026-05-05 18:36 | 60.53012 | 19.19263 | 27898 ft | 490 kts | 346° |
| 2026-05-05 18:36 | 60.56446 | 19.19350 | 27932 ft | 513 kts | 356° |
| 2026-05-05 18:37 | 60.60022 | 19.20601 | 27861 ft | 523 kts | 1° |
| 2026-05-05 18:37 | 60.63577 | 19.22116 | 27868 ft | 519 kts | 2° |
| 2026-05-05 18:37 | 60.67130 | 19.23515 | 27565 ft | 529 kts | 2° |
| 2026-05-05 18:37 | 60.70689 | 19.24927 | 27847 ft | 516 kts | 360° |
| 2026-05-05 18:38 | 60.74243 | 19.26185 | 27862 ft | 517 kts | 359° |
| 2026-05-05 18:38 | 60.77799 | 19.27451 | 27744 ft | 522 kts | 355° |
| 2026-05-05 18:38 | 60.81341 | 19.28643 | 27624 ft | 514 kts | 345° |
| 2026-05-05 18:38 | 60.84916 | 19.29986 | 27133 ft | 507 kts | 330° |
| 2026-05-05 18:39 | 60.88577 | 19.30765 | 28548 ft | 579 kts | 12° |
| 2026-05-05 18:39 | 60.91956 | 19.32616 | 30035 ft | 523 kts | 17° |
| 2026-05-05 18:39 | 60.95347 | 19.33243 | 27752 ft | 534 kts | 348° |
| 2026-05-05 18:39 | 60.99434 | 19.34497 | 27965 ft | 651 kts | 10° |
| 2026-05-05 18:40 | 61.02977 | 19.32748 | 29170 ft | 526 kts | 346° |
| 2026-05-05 18:40 | 61.06361 | 19.36685 | 27787 ft | 634 kts | 15° |
| 2026-05-05 18:40 | 61.10137 | 19.37140 | 27888 ft | 509 kts | 359° |
| 2026-05-05 18:40 | 61.13302 | 19.40769 | 27132 ft | 566 kts | 11° |
| 2026-05-05 18:41 | 61.16874 | 19.40105 | 27330 ft | 517 kts | 333° |
| 2026-05-05 18:41 | 61.20593 | 19.41003 | 28106 ft | 488 kts | 357° |
| 2026-05-05 18:41 | 61.24090 | 19.42164 | 27663 ft | 542 kts | 0° |
| 2026-05-05 18:41 | 61.27762 | 19.43506 | 27836 ft | 524 kts | 359° |
| 2026-05-05 18:42 | 61.31338 | 19.44824 | 27844 ft | 536 kts | 15° |
| 2026-05-05 18:42 | 61.34835 | 19.45821 | 27662 ft | 510 kts | 359° |
| 2026-05-05 18:42 | 61.38489 | 19.47060 | 27832 ft | 521 kts | 359° |
| 2026-05-05 18:42 | 61.42066 | 19.48239 | 27839 ft | 519 kts | 1° |
| 2026-05-05 18:43 | 61.45593 | 19.49431 | 27833 ft | 523 kts | 0° |
| 2026-05-05 18:43 | 61.49141 | 19.50510 | 27846 ft | 516 kts | 359° |
| 2026-05-05 18:43 | 61.52722 | 19.51682 | 27828 ft | 523 kts | 360° |
| 2026-05-05 18:43 | 61.56285 | 19.52862 | 27828 ft | 518 kts | 360° |
| 2026-05-05 18:44 | 61.59814 | 19.54339 | 27736 ft | 501 kts | 353° |
| 2026-05-05 18:44 | 61.63365 | 19.55386 | 27790 ft | 522 kts | 359° |
| 2026-05-05 18:44 | 61.66942 | 19.56584 | 27795 ft | 521 kts | 0° |
| 2026-05-05 18:44 | 61.70446 | 19.57760 | 27800 ft | 511 kts | 360° |
| 2026-05-05 18:45 | 61.73953 | 19.58953 | 27865 ft | 512 kts | 1° |
| 2026-05-05 18:45 | 61.77476 | 19.60118 | 27743 ft | 513 kts | 1° |
| 2026-05-05 18:45 | 61.81003 | 19.61304 | 27719 ft | 513 kts | 2° |
| 2026-05-05 18:45 | 61.84523 | 19.62516 | 27694 ft | 511 kts | 2° |
| 2026-05-05 18:46 | 61.88015 | 19.63748 | 27698 ft | 507 kts | 2° |
| 2026-05-05 18:46 | 61.91482 | 19.64984 | 27727 ft | 505 kts | 2° |
| 2026-05-05 18:46 | 61.94949 | 19.66199 | 27771 ft | 505 kts | 2° |
| 2026-05-05 18:46 | 61.98419 | 19.67365 | 27822 ft | 505 kts | 2° |
| 2026-05-05 18:47 | 62.01843 | 19.68488 | 27885 ft | 505 kts | 2° |
| 2026-05-05 18:47 | 62.05368 | 19.69653 | 27921 ft | 542 kts | 3° |
| 2026-05-05 18:47 | 62.09456 | 19.71042 | 28051 ft | 642 kts | 4° |
| 2026-05-05 18:47 | 62.14192 | 19.72732 | 27808 ft | 733 kts | 3° |
| 2026-05-05 18:48 | 62.19505 | 19.74310 | 27989 ft | 804 kts | 5° |
| 2026-05-05 18:48 | 62.25245 | 19.76127 | 28481 ft | 864 kts | 6° |
| 2026-05-05 18:48 | 62.31399 | 19.78689 | 28450 ft | 942 kts | 9° |
| 2026-05-05 18:48 | 62.38127 | 19.81696 | 28302 ft | 1028 kts | 7° |
| 2026-05-05 18:49 | 62.45329 | 19.84184 | 27903 ft | 1098 kts | 9° |
| 2026-05-05 18:49 | 62.52971 | 19.87832 | 27818 ft | 1148 kts | 9° |
| 2026-05-05 18:49 | 62.60895 | 19.91697 | 27573 ft | 1181 kts | 11° |
| 2026-05-05 18:49 | 62.68938 | 19.95702 | 28298 ft | 1190 kts | 11° |
| 2026-05-05 18:50 | 62.77053 | 19.99516 | 28519 ft | 1196 kts | 9° |
| 2026-05-05 18:50 | 62.85232 | 20.03132 | 28401 ft | 1203 kts | 10° |
| 2026-05-05 18:50 | 62.93408 | 20.07161 | 28183 ft | 1206 kts | 11° |
| 2026-05-05 18:50 | 63.01413 | 20.11065 | 28009 ft | 1207 kts | 11° |
| 2026-05-05 18:51 | 63.09496 | 20.15108 | 27805 ft | 1207 kts | 11° |
| 2026-05-05 18:51 | 63.17672 | 20.19254 | 27700 ft | 1206 kts | 11° |
| 2026-05-05 18:51 | 63.25852 | 20.23306 | 27902 ft | 1203 kts | 10° |
| 2026-05-05 18:51 | 63.34014 | 20.27436 | 28327 ft | 1201 kts | 12° |
| 2026-05-05 18:52 | 63.50114 | 20.37734 | 28152 ft | 1208 kts | 16° |
| 2026-05-05 18:52 | 63.58272 | 20.41459 | 27752 ft | 1198 kts | 356° |
| 2026-05-05 18:52 | 63.66377 | 20.43582 | 27608 ft | 1207 kts | 19° |
| 2026-05-05 18:53 | 63.74344 | 20.49175 | 28335 ft | 1198 kts | 13° |
| 2026-05-05 18:53 | 63.82423 | 20.53942 | 28281 ft | 1200 kts | 13° |
| 2026-05-05 18:53 | 63.98565 | 20.63648 | 28282 ft | 1201 kts | 14° |
| 2026-05-05 18:54 | 64.14913 | 20.70237 | 27989 ft | 1196 kts | 1° |
| 2026-05-05 18:54 | 64.23205 | 20.71879 | 27933 ft | 1193 kts | 11° |
| 2026-05-05 18:54 | 64.31007 | 20.78283 | 28248 ft | 1202 kts | 24° |
| 2026-05-05 18:55 | 64.38456 | 20.86656 | 26957 ft | 1209 kts | 24° |
| 2026-05-05 18:55 | 64.46352 | 20.92525 | 26545 ft | 1178 kts | 14° |
| 2026-05-05 18:55 | 64.52524 | 20.96415 | 27561 ft | 724 kts | 18° |
| 2026-05-05 18:55 | 64.57267 | 21.03697 | 24902 ft | 889 kts | 38° |
| 2026-05-05 18:56 | 64.62269 | 21.12917 | 23728 ft | 869 kts | 38° |
| 2026-05-05 18:56 | 64.66595 | 21.20956 | 22911 ft | 726 kts | 37° |
| 2026-05-05 18:56 | 64.70325 | 21.27515 | 21937 ft | 643 kts | 37° |
| 2026-05-05 18:56 | 64.74318 | 21.34404 | 20389 ft | 785 kts | 36° |
| 2026-05-05 18:57 | 64.79207 | 21.42383 | 18577 ft | 928 kts | 34° |
| 2026-05-05 18:57 | 64.84768 | 21.51352 | 16452 ft | 1028 kts | 34° |
| 2026-05-05 18:57 | 64.90828 | 21.61195 | 14334 ft | 1083 kts | 34° |
| 2026-05-05 18:57 | 64.97082 | 21.71475 | 12222 ft | 1105 kts | 34° |
| 2026-05-05 18:58 | 65.03361 | 21.81956 | 10269 ft | 1099 kts | 34° |
| 2026-05-05 18:58 | 65.09122 | 21.91757 | 8505 ft | 878 kts | 34° |
| 2026-05-05 18:58 | 65.13339 | 21.99124 | 7141 ft | 649 kts | 35° |
| 2026-05-05 18:58 | 65.16574 | 22.04933 | 6074 ft | 530 kts | 35° |
| 2026-05-05 18:59 | 65.19457 | 22.09593 | 5082 ft | 538 kts | 24° |
| 2026-05-05 18:59 | 65.23613 | 22.13400 | 4348 ft | 725 kts | 14° |
| 2026-05-05 18:59 | 65.28796 | 22.16131 | 3252 ft | 811 kts | 9° |
| 2026-05-05 18:59 | 65.34510 | 22.18510 | 2337 ft | 840 kts | 9° |
| 2026-05-05 19:00 | 65.39340 | 22.20611 | 1684 ft | 590 kts | 9° |
| 2026-05-05 19:00 | 65.42899 | 22.22283 | 1520 ft | 460 kts | 9° |
| 2026-05-05 19:00 | 65.45709 | 22.23693 | 1449 ft | 383 kts | 9° |
| 2026-05-05 19:00 | 65.48263 | 22.24361 | 1164 ft | 352 kts | 343° |
| 2026-05-05 19:01 | 65.50309 | 22.21387 | 955 ft | 349 kts | 317° |
| 2026-05-05 19:01 | 65.52088 | 22.17418 | 929 ft | 348 kts | 317° |
| 2026-05-05 19:01 | 65.53863 | 22.13420 | 921 ft | 346 kts | 303° |
| 2026-05-05 19:01 | 65.52923 | 22.11184 | 790 ft | 281 kts | 125° |
| 2026-05-05 19:02 | 65.51758 | 22.13707 | 667 ft | 188 kts | 128° |
| 2026-05-05 19:02 | 65.51897 | 22.16232 | 417 ft | 166 kts | 11° |
| 2026-05-05 19:02 | 65.52910 | 22.15464 | 108 ft | 157 kts | 317° |
| 2026-05-05 19:02 | 65.53685 | 22.13750 | 33 ft | 136 kts | 316° |
| 2026-05-05 19:03 | 65.54243 | 22.12504 | 43 ft | 85 kts | 317° |
| 2026-05-05 19:03 | 65.54609 | 22.11697 | 49 ft | 59 kts | 324° |
| 2026-05-05 19:03 | 65.54727 | 22.11348 | 50 ft | 16 kts | 272° |
| 2026-05-05 19:03 | 65.54670 | 22.11145 | 51 ft | 16 kts | 231° |
| 2026-05-05 19:04 | 65.54667 | 22.10853 | 51 ft | 20 kts | 282° |
| 2026-05-05 19:04 | 65.54588 | 22.10807 | 52 ft | 24 kts | 189° |
| 2026-05-05 19:04 | 65.54558 | 22.10881 | 51 ft | 0 kts | 64° |